createdAt,value
2018-02-16T00:00:47.751Z,85.11
2018-02-16T00:03:16.741Z,85.11
2018-02-16T00:05:45.763Z,85.20
2018-02-16T00:08:14.745Z,84.83
2018-02-16T00:10:43.763Z,85.65
2018-02-16T00:13:14.763Z,85.60
2018-02-16T00:15:43.752Z,85.24
2018-02-16T00:18:12.774Z,85.24
2018-02-16T00:20:41.769Z,85.56
2018-02-16T00:23:10.767Z,85.30
2018-02-16T00:25:39.763Z,85.03
2018-02-16T00:28:08.766Z,85.12
2018-02-16T00:30:37.788Z,85.53
2018-02-16T00:33:06.792Z,85.94
2018-02-16T00:35:35.771Z,85.24
2018-02-16T00:38:04.784Z,85.56
2018-02-16T00:40:34.675Z,85.36
2018-02-16T00:43:03.836Z,85.70
2018-02-16T00:45:32.756Z,85.44
2018-02-16T00:48:01.752Z,85.79
2018-02-16T00:50:30.749Z,85.83
2018-02-16T00:52:59.806Z,85.72
2018-02-16T00:55:28.767Z,85.81
2018-02-16T00:57:57.738Z,85.95
2018-02-16T01:00:26.740Z,85.63
2018-02-16T01:02:55.767Z,86.31
2018-02-16T01:05:24.735Z,85.54
2018-02-16T01:07:53.762Z,85.75
2018-02-16T01:10:22.723Z,85.91
2018-02-16T01:12:51.767Z,86.01
2018-02-16T01:15:20.794Z,86.28
2018-02-16T01:17:49.740Z,86.26
2018-02-16T01:20:18.757Z,86.05
2018-02-16T01:24:56.394Z,85.76
2018-02-16T01:27:26.404Z,85.98
2018-02-16T01:38:12.470Z,86.17
2018-02-16T01:40:41.995Z,85.93
2018-02-16T01:43:11.493Z,86.30
2018-02-16T01:45:41.435Z,86.33
2018-02-16T01:48:11.396Z,86.28
2018-02-16T01:57:43.821Z,85.81
2018-02-16T02:00:13.258Z,85.83
2018-02-16T02:02:42.954Z,85.07
2018-02-16T02:05:12.415Z,85.60
2018-02-16T02:07:42.496Z,85.96
2018-02-16T02:10:13.640Z,85.81
2018-02-16T02:12:43.453Z,86.35
2018-02-16T02:21:12.552Z,85.93
2018-02-16T02:23:42.584Z,85.73
2018-02-16T02:26:13.842Z,85.91
2018-02-16T02:28:42.923Z,85.66
2018-02-16T02:39:35.804Z,85.13
2018-02-16T02:42:04.823Z,85.26
2018-02-16T02:44:33.774Z,85.33
2018-02-16T02:47:02.820Z,85.31
2018-02-16T02:49:31.775Z,85.85
2018-02-16T02:52:00.787Z,85.44
2018-02-16T02:54:29.745Z,85.62
2018-02-16T02:56:58.776Z,85.60
2018-02-16T02:59:27.784Z,85.94
2018-02-16T03:01:56.829Z,85.69
2018-02-16T03:04:25.791Z,85.40
2018-02-16T03:06:54.795Z,86.10
2018-02-16T03:09:23.811Z,85.85
2018-02-16T03:11:52.779Z,85.76
2018-02-16T03:14:21.756Z,85.80
2018-02-16T03:16:50.760Z,86.19
2018-02-16T03:19:19.749Z,85.17
2018-02-16T03:21:48.774Z,85.92
2018-02-16T03:24:17.749Z,85.95
2018-02-16T03:26:46.747Z,85.29
2018-02-16T03:29:15.734Z,85.22
2018-02-16T03:31:44.767Z,86.00
2018-02-16T03:34:14.786Z,85.40
2018-02-16T03:36:43.777Z,86.17
2018-02-16T03:39:12.764Z,85.91
2018-02-16T03:41:41.824Z,85.93
2018-02-16T03:44:11.062Z,85.64
2018-02-16T03:46:40.105Z,85.50
2018-02-16T03:49:09.104Z,85.84
2018-02-16T03:51:38.573Z,86.13
2018-02-16T03:54:08.018Z,85.98
2018-02-16T03:56:37.086Z,85.90
2018-02-16T03:59:06.225Z,85.75
2018-02-16T04:01:35.808Z,85.40
2018-02-16T04:04:04.778Z,85.61
2018-02-16T04:06:33.780Z,85.88
2018-02-16T04:09:02.815Z,85.48
2018-02-16T04:11:31.809Z,85.97
2018-02-16T04:14:00.805Z,85.84
2018-02-16T04:16:29.881Z,85.70
2018-02-16T04:18:58.894Z,85.74
2018-02-16T04:21:27.863Z,85.80
2018-02-16T04:23:56.792Z,85.95
2018-02-16T04:26:25.789Z,86.00
2018-02-16T04:28:54.875Z,86.06
2018-02-16T04:31:23.898Z,86.01
2018-02-16T04:33:52.782Z,86.31
2018-02-16T04:36:21.772Z,86.21
2018-02-16T04:38:50.748Z,85.89
2018-02-16T04:41:19.788Z,85.95
2018-02-16T04:43:48.803Z,86.20
2018-02-16T04:46:17.883Z,86.26
2018-02-16T04:48:47.091Z,86.30
2018-02-16T04:51:16.258Z,85.88
2018-02-16T04:53:45.748Z,86.11
2018-02-16T04:56:14.860Z,85.88
2018-02-16T04:58:44.055Z,86.25
2018-02-16T05:01:13.265Z,86.13
2018-02-16T05:03:42.794Z,86.52
2018-02-16T05:06:11.987Z,86.20
2018-02-16T05:08:43.729Z,86.22
2018-02-16T05:11:12.797Z,86.13
2018-02-16T05:13:41.795Z,86.09
2018-02-16T05:16:11.074Z,86.08
2018-02-16T05:18:40.212Z,86.16
2018-02-16T05:21:09.778Z,86.26
2018-02-16T05:23:38.836Z,86.05
2018-02-16T05:26:07.856Z,86.49
2018-02-16T05:28:36.858Z,86.43
2018-02-16T05:31:06.275Z,86.66
2018-02-16T05:33:35.887Z,86.48
2018-02-16T05:36:04.879Z,86.14
2018-02-16T05:38:33.904Z,86.48
2018-02-16T05:41:03.092Z,86.22
2018-02-16T05:43:32.474Z,86.21
2018-02-16T05:46:01.832Z,86.28
2018-02-16T05:48:30.894Z,86.36
2018-02-16T05:50:59.859Z,86.10
2018-02-16T05:53:28.884Z,86.36
2018-02-16T05:55:57.806Z,86.17
2018-02-16T05:58:26.759Z,86.10
2018-02-16T06:00:56.207Z,86.16
2018-02-16T06:03:25.773Z,86.19
2018-02-16T06:05:55.204Z,86.17
2018-02-16T06:08:24.814Z,86.10
2018-02-16T06:10:53.878Z,86.08
2018-02-16T06:13:23.305Z,86.23
2018-02-16T06:15:52.795Z,86.10
2018-02-16T06:18:22.251Z,86.43
2018-02-16T06:20:51.763Z,86.29
2018-02-16T06:23:20.783Z,86.40
2018-02-16T06:28:37.541Z,86.52
2018-02-16T06:31:07.526Z,86.50
2018-02-16T06:33:37.199Z,86.38
2018-02-16T06:36:06.826Z,86.32
2018-02-16T06:38:36.216Z,86.38
2018-02-16T06:41:05.762Z,86.20
2018-02-16T06:43:35.069Z,86.11
2018-02-16T06:46:04.837Z,86.33
2018-02-16T06:48:34.286Z,86.32
2018-02-16T06:51:03.791Z,86.13
2018-02-16T06:53:33.206Z,86.33
2018-02-16T06:56:04.706Z,86.44
2018-02-16T06:58:34.710Z,86.27
2018-02-16T07:01:04.388Z,86.31
2018-02-16T07:03:34.280Z,86.30
2018-02-16T07:06:04.330Z,85.96
2018-02-16T07:08:34.037Z,86.25
2018-02-16T07:11:03.875Z,86.48
2018-02-16T07:13:33.611Z,86.27
2018-02-16T07:16:02.886Z,86.17
2018-02-16T07:18:32.594Z,86.46
2018-02-16T07:21:02.442Z,86.02
2018-02-16T07:23:32.098Z,86.15
2018-02-16T07:26:01.810Z,86.27
2018-02-16T07:28:31.844Z,86.06
2018-02-16T07:31:01.538Z,86.27
2018-02-16T07:33:31.151Z,86.09
2018-02-16T07:36:00.913Z,86.34
2018-02-16T07:38:30.350Z,86.36
2018-02-16T07:41:00.124Z,86.13
2018-02-16T07:43:29.874Z,86.27
2018-02-16T07:45:59.388Z,86.50
2018-02-16T07:48:29.237Z,86.49
2018-02-16T07:50:58.886Z,86.54
2018-02-16T07:53:28.274Z,86.49
2018-02-16T07:55:57.917Z,86.83
2018-02-16T07:58:27.524Z,87.17
2018-02-16T08:00:56.944Z,86.95
2018-02-16T08:03:26.400Z,86.97
2018-02-16T08:06:14.836Z,86.85
2018-02-16T08:08:44.820Z,86.70
2018-02-16T08:11:14.695Z,87.29
2018-02-16T08:30:39.175Z,87.56
2018-02-16T08:41:25.782Z,87.18
2018-02-16T08:43:55.963Z,87.15
2018-02-16T08:46:28.540Z,87.39
2018-02-16T08:48:57.819Z,87.68
2018-02-16T08:51:27.208Z,87.34
2018-02-16T08:53:56.926Z,87.14
2018-02-16T08:56:26.794Z,87.31
2018-02-16T08:58:56.274Z,87.45
2018-02-16T09:01:25.837Z,87.36
2018-02-16T09:03:55.773Z,87.09
2018-02-16T09:06:25.490Z,87.17
2018-02-16T09:08:54.931Z,87.23
2018-02-16T09:11:24.646Z,87.43
2018-02-16T09:13:54.327Z,87.57
2018-02-16T09:16:23.833Z,87.38
2018-02-16T09:18:53.149Z,87.55
2018-02-16T09:21:22.966Z,87.59
2018-02-16T09:23:52.219Z,87.65
2018-02-16T09:26:23.887Z,87.92
2018-02-16T09:28:53.730Z,87.81
2018-02-16T09:31:23.301Z,87.59
2018-02-16T09:33:52.868Z,87.67
2018-02-16T09:36:23.371Z,87.68
2018-02-16T09:49:33.601Z,88.04
2018-02-16T09:52:02.866Z,87.90
2018-02-16T09:54:32.263Z,88.03
2018-02-16T09:57:01.964Z,88.36
2018-02-16T09:59:31.256Z,88.30
2018-02-16T10:02:02.746Z,88.24
2018-02-16T10:04:35.661Z,88.04
2018-02-16T10:07:05.738Z,88.06
2018-02-16T10:09:35.229Z,88.26
2018-02-16T10:12:04.786Z,88.72
2018-02-16T10:14:36.134Z,88.76
2018-02-16T10:17:09.607Z,88.93
2018-02-16T10:19:42.878Z,88.39
2018-02-16T10:22:12.119Z,88.45
2018-02-16T10:24:41.725Z,88.45
2018-02-16T10:27:11.322Z,87.92
2018-02-16T10:29:40.917Z,88.41
2018-02-16T10:32:10.388Z,88.81
2018-02-16T10:34:40.613Z,88.30
2018-02-16T10:37:09.916Z,88.69
2018-02-16T10:39:39.464Z,89.00
2018-02-16T10:42:10.735Z,88.89
2018-02-16T10:44:42.725Z,88.57
2018-02-16T10:47:15.258Z,87.92
2018-02-16T10:49:47.811Z,87.92
2018-02-16T10:52:19.410Z,88.25
2018-02-16T10:54:49.005Z,87.81
2018-02-16T10:57:18.405Z,87.72
2018-02-16T10:59:47.819Z,87.95
2018-02-16T11:02:25.261Z,87.50
2018-02-16T11:05:00.203Z,87.39
2018-02-16T11:07:35.466Z,87.64
2018-02-16T11:10:05.433Z,87.32
2018-02-16T11:12:35.300Z,87.03
2018-02-16T11:15:06.682Z,86.91
2018-02-16T11:17:39.993Z,86.51
2018-02-16T11:20:09.673Z,87.04
2018-02-16T11:22:38.965Z,86.77
2018-02-16T11:25:08.233Z,87.11
2018-02-16T11:27:37.785Z,86.54
2018-02-16T11:30:07.492Z,86.33
2018-02-16T11:32:37.309Z,86.99
2018-02-16T11:35:06.872Z,86.34
2018-02-16T11:37:38.114Z,86.43
2018-02-16T11:40:07.835Z,86.79
2018-02-16T11:42:37.238Z,86.08
2018-02-16T11:45:06.880Z,85.96
2018-02-16T11:47:36.071Z,85.85
2018-02-16T11:50:05.732Z,85.55
2018-02-16T11:52:35.082Z,86.10
2018-02-16T11:55:04.280Z,87.28
2018-02-16T11:57:33.811Z,85.90
2018-02-16T12:02:38.689Z,86.42
2018-02-16T12:05:08.110Z,87.32
2018-02-16T12:07:37.951Z,86.22
2018-02-16T12:10:07.717Z,86.01
2018-02-16T12:12:37.905Z,86.67
2018-02-16T12:15:07.456Z,86.81
2018-02-16T12:17:36.913Z,86.37
2018-02-16T12:20:06.779Z,86.28
2018-02-16T12:25:10.882Z,86.65
2018-02-16T12:47:01.571Z,86.32
2018-02-16T12:49:31.868Z,86.59
2018-02-16T12:52:01.832Z,86.33
2018-02-16T13:02:55.543Z,86.16
2018-02-16T13:05:25.241Z,86.35
2018-02-16T13:07:54.734Z,86.34
2018-02-16T13:10:24.412Z,86.21
2018-02-16T13:12:53.979Z,86.50
2018-02-16T13:15:23.343Z,86.12
2018-02-16T13:17:53.127Z,86.19
2018-02-16T13:20:22.739Z,86.44
2018-02-16T13:22:52.299Z,86.20
2018-02-16T13:25:21.769Z,86.25
2018-02-16T13:27:51.363Z,86.39
2018-02-16T13:30:20.948Z,86.27
2018-02-16T13:32:50.993Z,85.95
2018-02-16T13:35:20.698Z,85.84
2018-02-16T13:37:50.525Z,85.93
2018-02-16T13:40:20.277Z,85.91
2018-02-16T13:42:50.452Z,85.46
2018-02-16T13:45:19.801Z,85.09
2018-02-16T13:47:49.337Z,85.61
2018-02-16T13:50:18.834Z,85.57
2018-02-16T13:52:48.352Z,85.52
2018-02-16T13:58:05.435Z,85.14
2018-02-16T14:00:36.658Z,84.44
2018-02-16T14:03:07.650Z,84.97
2018-02-16T14:05:37.909Z,84.83
2018-02-16T14:17:59.564Z,84.70
2018-02-16T14:20:31.768Z,84.15
2018-02-16T14:23:02.757Z,84.43
2018-02-16T14:25:32.889Z,84.35
2018-02-16T14:28:02.786Z,84.11
2018-02-16T14:30:32.958Z,84.12
2018-02-16T14:33:03.843Z,84.22
2018-02-16T14:42:33.535Z,83.88
2018-02-16T14:45:03.780Z,84.11
2018-02-16T14:47:34.589Z,83.81
2018-02-16T14:50:04.516Z,83.73
2018-02-16T14:52:35.697Z,83.80
2018-02-16T14:55:05.810Z,83.59
2018-02-16T14:57:35.292Z,83.95
2018-02-16T15:00:04.908Z,83.82
2018-02-16T15:02:34.196Z,83.84
2018-02-16T15:05:04.327Z,83.75
2018-02-16T15:07:34.409Z,83.67
2018-02-16T15:10:03.922Z,83.59
2018-02-16T15:12:34.316Z,83.56
2018-02-16T15:15:05.733Z,83.64
2018-02-16T15:17:37.720Z,83.39
2018-02-16T15:20:09.717Z,83.45
2018-02-16T15:22:43.638Z,83.50
2018-02-16T15:25:16.823Z,83.01
2018-02-16T15:27:48.731Z,83.29
2018-02-16T15:30:20.709Z,83.19
2018-02-16T15:32:52.839Z,83.22
2018-02-16T15:35:24.746Z,83.03
2018-02-16T15:37:56.661Z,83.13
2018-02-16T15:40:26.309Z,83.17
2018-02-16T15:42:56.350Z,83.18
2018-02-16T15:45:25.857Z,83.17
2018-02-16T15:47:55.402Z,82.99
2018-02-16T15:50:24.837Z,82.85
2018-02-16T15:52:54.282Z,82.87
2018-02-16T15:55:23.884Z,83.13
2018-02-16T15:57:53.724Z,83.01
2018-02-16T16:00:23.121Z,83.06
2018-02-16T16:02:52.913Z,83.07
2018-02-16T16:05:22.644Z,83.18
2018-02-16T16:07:53.744Z,83.05
2018-02-16T16:10:24.773Z,82.81
2018-02-16T16:12:54.107Z,82.76
2018-02-16T16:15:23.844Z,82.60
2018-02-16T16:17:53.369Z,82.89
2018-02-16T16:20:23.485Z,82.74
2018-02-16T16:22:54.740Z,82.68
2018-02-16T16:25:26.961Z,82.67
2018-02-16T16:27:58.719Z,82.90
2018-02-16T16:30:30.787Z,82.88
2018-02-16T16:33:03.245Z,82.70
2018-02-16T16:35:35.807Z,82.67
2018-02-16T16:38:09.205Z,82.77
2018-02-16T16:40:39.623Z,82.86
2018-02-16T16:43:11.464Z,82.76
2018-02-16T16:45:41.289Z,82.72
2018-02-16T16:48:10.881Z,82.75
2018-02-16T16:50:40.413Z,82.60
2018-02-16T16:53:09.955Z,82.61
2018-02-16T16:55:39.508Z,82.81
2018-02-16T16:58:09.270Z,82.76
2018-02-16T17:00:38.761Z,82.78
2018-02-16T17:03:29.767Z,82.83
